createdAt,value
2018-10-19T00:02:06.887Z,13.46
2018-10-19T00:07:10.270Z,13.46
2018-10-19T00:12:13.609Z,13.45
2018-10-19T00:17:17.085Z,13.46
2018-10-19T00:22:20.275Z,13.46
2018-10-19T00:27:23.614Z,13.46
2018-10-19T00:32:26.943Z,13.45
2018-10-19T00:37:30.298Z,13.43
2018-10-19T00:42:33.687Z,13.42
2018-10-19T00:47:37.034Z,13.41
2018-10-19T00:52:40.405Z,13.41
2018-10-19T00:57:43.745Z,13.39
2018-10-19T01:02:47.069Z,13.37
2018-10-19T01:07:50.390Z,13.35
2018-10-19T01:12:57.253Z,13.33
2018-10-19T01:18:00.755Z,13.34
2018-10-19T01:23:04.222Z,13.32
2018-10-19T01:28:07.545Z,13.30
2018-10-19T01:33:10.944Z,13.29
2018-10-19T01:38:14.258Z,13.27
2018-10-19T01:43:17.662Z,13.26
2018-10-19T01:48:21.014Z,13.25
2018-10-19T01:53:24.355Z,13.24
2018-10-19T01:58:27.744Z,13.21
2018-10-19T02:03:31.069Z,13.18
2018-10-19T02:08:34.417Z,13.15
2018-10-19T02:13:37.777Z,13.13
2018-10-19T02:18:41.154Z,13.14
2018-10-19T02:23:44.526Z,13.15
2018-10-19T02:28:47.855Z,13.13
2018-10-19T02:33:51.178Z,13.10
2018-10-19T02:38:54.572Z,13.10
2018-10-19T02:43:58.182Z,13.10
2018-10-19T02:49:01.536Z,13.10
2018-10-19T02:54:05.377Z,13.05
2018-10-19T02:59:08.812Z,13.02
2018-10-19T03:04:12.180Z,13.02
2018-10-19T03:09:15.741Z,13.00
2018-10-19T03:14:18.948Z,12.94
2018-10-19T03:19:22.266Z,12.93
2018-10-19T03:24:25.694Z,12.93
2018-10-19T03:29:29.040Z,12.90
2018-10-19T03:34:32.395Z,12.91
2018-10-19T03:39:35.694Z,12.89
2018-10-19T03:44:39.062Z,12.89
2018-10-19T03:49:42.384Z,12.87
2018-10-19T03:54:45.729Z,12.86
2018-10-19T03:59:49.063Z,12.84
2018-10-19T04:04:52.435Z,12.84
2018-10-19T04:09:55.778Z,12.83
2018-10-19T04:14:59.130Z,12.80
2018-10-19T04:20:02.461Z,12.79
2018-10-19T04:25:06.632Z,12.72
2018-10-19T04:30:09.962Z,12.68
2018-10-19T04:35:13.311Z,12.60
2018-10-19T04:40:20.874Z,12.46
2018-10-19T04:45:24.251Z,12.42
2018-10-19T04:50:27.604Z,12.39
2018-10-19T04:55:30.915Z,12.32
2018-10-19T05:00:34.217Z,12.30
2018-10-19T05:05:37.524Z,12.32
2018-10-19T05:10:40.843Z,12.32
2018-10-19T05:15:44.347Z,12.27
2018-10-19T05:20:47.715Z,12.19
2018-10-19T05:25:51.037Z,12.10
2018-10-19T05:30:54.378Z,12.11
2018-10-19T05:35:57.694Z,12.07
2018-10-19T05:41:01.124Z,11.96
2018-10-19T05:46:04.429Z,11.92
2018-10-19T05:51:07.955Z,11.90
2018-10-19T05:56:11.768Z,11.87
2018-10-19T06:01:15.120Z,11.88
2018-10-19T06:06:18.665Z,11.92
2018-10-19T06:11:23.445Z,11.93
2018-10-19T06:16:27.213Z,11.91
2018-10-19T06:21:30.855Z,11.93
2018-10-19T06:26:34.227Z,11.93
2018-10-19T06:31:37.507Z,11.94
2018-10-19T06:36:40.831Z,11.89
2018-10-19T06:41:44.155Z,11.88
2018-10-19T06:46:47.604Z,11.88
2018-10-19T06:51:50.888Z,11.88
2018-10-19T06:56:54.218Z,11.97
2018-10-19T07:01:57.602Z,11.98
2018-10-19T07:07:00.982Z,11.97
2018-10-19T07:12:04.388Z,12.00
2018-10-19T07:17:07.778Z,12.00
2018-10-19T07:22:11.184Z,11.97
2018-10-19T07:27:14.558Z,11.97
2018-10-19T07:32:17.909Z,11.96
2018-10-19T07:37:21.231Z,11.95
2018-10-19T07:42:24.778Z,11.98
2018-10-19T07:47:28.072Z,12.02
2018-10-19T07:52:31.438Z,12.06
2018-10-19T07:57:34.773Z,12.09
2018-10-19T08:02:38.167Z,12.21
2018-10-19T08:07:41.581Z,12.25
2018-10-19T08:12:44.928Z,12.32
2018-10-19T08:17:48.275Z,12.37
2018-10-19T08:22:51.635Z,12.42
2018-10-19T08:27:54.953Z,12.44
2018-10-19T08:32:58.298Z,12.50
2018-10-19T08:38:01.678Z,12.49
2018-10-19T08:43:05.326Z,12.44
2018-10-19T08:48:08.629Z,12.47
2018-10-19T08:53:12.011Z,12.57
2018-10-19T08:58:15.328Z,12.65
2018-10-19T09:03:18.654Z,12.66
2018-10-19T09:08:22.084Z,12.75
2018-10-19T09:13:25.438Z,12.82
2018-10-19T09:18:29.084Z,12.92
2018-10-19T09:23:34.560Z,12.91
2018-10-19T09:28:38.885Z,12.91
2018-10-19T09:33:42.953Z,12.99
2018-10-19T09:38:46.776Z,13.09
2018-10-19T09:43:52.174Z,13.18
2018-10-19T09:48:56.342Z,13.22
2018-10-19T09:54:03.568Z,13.14
2018-10-19T09:59:09.176Z,13.13
2018-10-19T10:04:13.160Z,13.24
2018-10-19T10:09:20.128Z,13.36
2018-10-19T10:14:24.126Z,13.49
2018-10-19T10:19:31.444Z,13.46
2018-10-19T10:24:35.154Z,13.47
2018-10-19T10:29:39.714Z,13.51
2018-10-19T10:51:11.414Z,13.83
2018-10-19T10:56:14.984Z,13.89
2018-10-19T11:01:18.490Z,13.96
2018-10-19T11:06:21.818Z,14.04
2018-10-19T11:11:25.347Z,14.02
2018-10-19T11:16:29.673Z,14.01
2018-10-19T11:21:33.251Z,13.98
2018-10-19T11:26:36.688Z,13.94
2018-10-19T11:31:40.132Z,14.00
2018-10-19T11:36:43.569Z,14.05
2018-10-19T11:41:47.014Z,14.14
2018-10-19T11:46:50.328Z,14.21
2018-10-19T11:51:53.870Z,14.23
2018-10-19T11:56:57.349Z,14.18
2018-10-19T12:02:00.666Z,14.16
2018-10-19T12:07:04.446Z,14.21
2018-10-19T12:12:07.925Z,14.32
2018-10-19T12:17:11.335Z,14.43
2018-10-19T12:22:14.694Z,14.46
2018-10-19T12:27:18.222Z,14.56
2018-10-19T12:32:21.631Z,14.77
2018-10-19T12:37:25.073Z,14.83
2018-10-19T12:42:28.578Z,14.74
2018-10-19T12:47:38.882Z,14.69
2018-10-19T12:52:42.303Z,14.76
2018-10-19T12:57:45.600Z,14.86
2018-10-19T13:02:48.946Z,14.96
2018-10-19T13:07:52.308Z,15.05
2018-10-19T13:12:55.625Z,15.12
2018-10-19T13:17:59.067Z,15.12
2018-10-19T13:23:02.396Z,15.13
2018-10-19T13:28:06.125Z,14.95
2018-10-19T13:33:10.794Z,14.84
2018-10-19T13:38:14.179Z,14.74
2018-10-19T13:43:17.564Z,14.65
2018-10-19T13:48:21.814Z,14.61
2018-10-19T13:53:25.264Z,14.55
2018-10-19T13:58:28.829Z,14.54
2018-10-19T14:03:32.202Z,14.58
2018-10-19T14:08:35.530Z,14.58
2018-10-19T14:13:39.203Z,14.56
2018-10-19T14:18:42.587Z,14.53
2018-10-19T14:23:46.025Z,14.52
2018-10-19T14:28:49.418Z,14.47
2018-10-19T14:33:53.853Z,14.39
2018-10-19T14:38:57.321Z,14.35
2018-10-19T14:44:00.640Z,14.29
2018-10-19T14:49:04.101Z,14.23
2018-10-19T14:54:07.358Z,14.19
2018-10-19T14:59:10.823Z,14.15
2018-10-19T15:04:14.858Z,14.10
2018-10-19T15:09:18.354Z,14.04
2018-10-19T15:14:22.010Z,14.00
2018-10-19T15:19:25.431Z,13.93
2018-10-19T15:24:28.770Z,13.86
2018-10-19T15:29:32.224Z,13.81
2018-10-19T15:34:35.499Z,13.73
2018-10-19T15:39:38.867Z,13.65
2018-10-19T15:44:42.322Z,13.52
2018-10-19T15:49:45.667Z,13.45
2018-10-19T15:54:49.084Z,13.40
2018-10-19T15:59:52.511Z,13.36
2018-10-19T16:04:56.023Z,13.32
2018-10-19T16:09:59.684Z,13.27
2018-10-19T16:15:03.747Z,13.21
2018-10-19T16:20:09.356Z,13.16
2018-10-19T16:25:13.013Z,13.10
2018-10-19T16:30:16.494Z,13.08
2018-10-19T16:35:20.189Z,13.00
2018-10-19T16:40:23.750Z,12.93
2018-10-19T16:45:27.076Z,12.88
2018-10-19T16:50:30.397Z,12.83
2018-10-19T16:55:33.756Z,12.76
2018-10-19T17:00:37.104Z,12.69
2018-10-19T17:05:40.438Z,12.61
2018-10-19T17:10:43.839Z,12.55
2018-10-19T17:15:47.250Z,12.53
2018-10-19T17:20:50.612Z,12.50
2018-10-19T17:25:53.935Z,12.46
2018-10-19T17:30:57.518Z,12.43
2018-10-19T17:36:01.132Z,12.40
2018-10-19T17:41:04.775Z,12.38
2018-10-19T17:46:08.136Z,12.34
2018-10-19T17:51:11.589Z,12.31
2018-10-19T17:56:14.919Z,12.26
2018-10-19T18:01:19.636Z,12.20
2018-10-19T18:06:23.039Z,12.14
2018-10-19T18:11:26.549Z,12.10
2018-10-19T18:16:29.977Z,12.06
2018-10-19T18:21:33.537Z,12.01
2018-10-19T18:26:36.891Z,11.96
2018-10-19T18:31:40.337Z,11.86
2018-10-19T18:36:43.825Z,11.76
2018-10-19T18:41:47.577Z,11.73
2018-10-19T18:46:51.160Z,11.72
2018-10-19T18:51:54.597Z,11.69
2018-10-19T18:56:58.028Z,11.62
2018-10-19T19:02:01.385Z,11.64
2018-10-19T19:07:04.720Z,11.67
2018-10-19T19:12:08.075Z,11.64
2018-10-19T19:17:11.469Z,11.57
2018-10-19T19:22:14.900Z,11.58
2018-10-19T19:27:18.240Z,11.54
2018-10-19T19:32:21.766Z,11.55
2018-10-19T19:37:25.150Z,11.56
2018-10-19T19:42:33.775Z,11.57
2018-10-19T19:47:42.414Z,11.54
2018-10-19T19:52:45.703Z,11.49
2018-10-19T19:57:49.021Z,11.49
2018-10-19T20:02:52.669Z,11.49
2018-10-19T20:07:55.942Z,11.45
2018-10-19T20:12:59.245Z,11.41
2018-10-19T20:18:03.212Z,11.41
2018-10-19T20:23:07.145Z,11.44
2018-10-19T20:28:10.638Z,11.45
2018-10-19T20:33:13.938Z,11.48
2018-10-19T20:38:17.351Z,11.45
2018-10-19T20:43:20.858Z,11.42
2018-10-19T20:48:24.164Z,11.39
2018-10-19T20:53:27.456Z,11.38
2018-10-19T20:58:30.815Z,11.34
2018-10-19T21:03:34.108Z,11.30
2018-10-19T21:08:37.467Z,11.22
2018-10-19T21:13:40.814Z,11.13
2018-10-19T21:18:44.085Z,11.15
2018-10-19T21:23:47.386Z,11.16
2018-10-19T21:28:50.770Z,11.14
2018-10-19T21:33:54.178Z,11.11
2018-10-19T21:38:57.609Z,11.03
2018-10-19T21:44:01.055Z,11.03
2018-10-19T21:49:04.364Z,11.05
2018-10-19T21:54:07.741Z,11.03
2018-10-19T21:59:11.673Z,11.01
2018-10-19T22:04:15.072Z,10.98
2018-10-19T22:09:18.552Z,10.94
2018-10-19T22:14:21.897Z,10.90
2018-10-19T22:19:25.193Z,10.86
2018-10-19T22:24:28.659Z,10.79
2018-10-19T22:29:32.048Z,10.77
2018-10-19T22:34:35.392Z,10.78
2018-10-19T22:39:38.780Z,10.80
2018-10-19T22:44:42.116Z,10.72
2018-10-19T22:49:45.451Z,10.73
2018-10-19T22:54:48.754Z,10.70
2018-10-19T22:59:52.119Z,10.64
2018-10-19T23:04:55.452Z,10.65
2018-10-19T23:09:58.793Z,10.59
2018-10-19T23:15:02.458Z,10.52
2018-10-19T23:20:07.930Z,10.46
2018-10-19T23:25:11.304Z,10.52
2018-10-19T23:30:14.615Z,10.56
2018-10-19T23:35:18.260Z,10.54
2018-10-19T23:40:21.851Z,10.57
2018-10-19T23:45:25.379Z,10.57
2018-10-19T23:50:28.809Z,10.49
2018-10-19T23:55:32.220Z,10.43
